• Join FlightAware (Why Join?)
  • Login
  • US Flag GB Flag 
01:13 EDT


 

Airport Tracker/Info


-or-


 

Live Flight TrackerFlight Track Log ✈ N6ZQ ✈ 06-Oct-2013 ✈ KGMU - KRMN

Flight Track Log - Related Links

Times and Time Zones

All times are in EDT time to prevent confusion due to time zone crossing. See the N6ZQ flight status page for this flight to view local times or setup timezone preferences in your user account.

Time Position Orientation Groundspeed Altitude Reporting Facility
EDT Latitude Longitude Course Direction KTS MPH feet Rate Location/Type
09:12 34.9756 -82.2822 14° North 168 193 4,800  Level Atlanta Center
09:13 35.0169 -82.2583 25° Northeast 186 214 5,700 900 Climbing Atlanta Center
09:14 35.0603 -82.2372 22° Northeast 186 214 6,700 600 Climbing Atlanta Center
09:15 35.0255 -82.1216 25° Northeast  Level Estimated
09:15 35.1100 -82.2081 26° Northeast 207 238 7,000  Level Atlanta Center
09:16 35.0761 -82.1091 11° North  Level FlightAware Approximate
09:16 35.1636 -82.1764 26° Northeast 212 244 7,200  Level Atlanta Center
09:17 35.1114 -82.0630 26° Northeast  Level Estimated
09:17 35.2114 -82.1500 24° Northeast 200 230 8,300  Level Atlanta Center
09:18 35.1615 -82.0483 14° North  Level FlightAware Approximate
09:18 35.2567 -82.1211 28° Northeast 182 209 9,100  Level Atlanta Center
09:19 35.3125 -82.0892 25° Northeast 187 215 9,100  Level Atlanta Center
09:20 35.3664 -82.0600 24° Northeast 200 230 9,100  Level Atlanta Center
09:21 35.4200 -82.0281 26° Northeast 210 242 9,100  Level Atlanta Center
09:22 35.4653 -81.9808 40° Northeast 210 242 9,100  Level Atlanta Center
09:23 35.5039 -81.9264 49° Northeast 205 236 9,100 -60 Level Atlanta Center
09:24 35.5406 -81.8694 52° Northeast 205 236 9,000 -60 Descending Atlanta Center
09:25 35.5792 -81.8172 48° Northeast 210 242 9,000  Level Atlanta Center
09:26 35.6136 -81.7628 52° Northeast 205 236 9,000  Level Atlanta Center
09:27 35.6483 -81.7131 49° Northeast 205 236 9,000  Level Atlanta Center
09:28 35.6828 -81.6583 52° Northeast 205 236 9,000  Level Atlanta Center
09:29 35.7214 -81.6061 48° Northeast 205 236 9,000  Level Atlanta Center
09:30 35.7556 -81.5539 51° Northeast 205 236 9,000  Level Atlanta Center
09:31 35.7942 -81.4939 52° Northeast 205 236 9,000  Level Atlanta Center
09:32 35.8306 -81.4417 49° Northeast 205 236 9,000  Level Atlanta Center
09:33 35.8669 -81.3867 51° Northeast 205 236 9,000  Level Atlanta Center
09:34 35.9033 -81.3317 51° Northeast 205 236 9,000  Level Atlanta Center
09:35 35.9394 -81.2764 51° Northeast 205 236 9,000  Level Atlanta Center
09:36 35.9739 -81.2214 52° Northeast 210 242 9,000  Level Atlanta Center
09:37 36.0100 -81.1689 50° Northeast 210 242 9,000  Level Atlanta Center
09:38 36.0422 -81.1189 51° Northeast 210 242 9,000  Level Atlanta Center
09:39 36.0764 -81.0636 53° Northeast 205 236 9,000  Level Atlanta Center
09:40 36.1147 -81.0083 49° Northeast 205 236 9,000  Level Atlanta Center
09:41 36.1489 -80.9531 53° Northeast 205 236 9,000  Level Atlanta Center
09:42 36.1850 -80.9003 50° Northeast 205 236 9,000  Level Atlanta Center
09:43 36.2253 -80.8394 51° Northeast 205 236 9,000  Level Atlanta Center
09:44 36.2611 -80.7839 51° Northeast 205 236 9,000  Level Atlanta Center
09:45 36.2994 -80.7283 49° Northeast 210 242 9,000  Level Atlanta Center
09:46 36.3353 -80.6703 53° Northeast 210 242 9,000  Level Atlanta Center
09:47 36.3733 -80.6144 50° Northeast 210 242 9,000  Level Atlanta Center
09:48 36.4053 -80.5642 52° Northeast 210 242 9,000  Level Atlanta Center
09:49 36.4414 -80.5083 51° Northeast 210 242 9,000  Level Atlanta Center
09:50 36.4792 -80.4525 50° Northeast 210 242 9,000  Level Atlanta Center
09:51 36.5150 -80.3939 53° Northeast 210 242 9,000  Level Atlanta Center
09:52 36.5550 -80.3300 52° Northeast 210 242 9,000  Level Atlanta Center
09:54 36.5959 -80.2611 54° Northeast  Level FlightAware Approximate
10:01 36.8180 -79.8981 50° Northeast  Level FlightAware Approximate
10:02 36.8514 -79.8479 51° Northeast  Level FlightAware Approximate
10:03 36.8846 -79.7974 51° Northeast  Level FlightAware Approximate
10:04 36.9177 -79.7469 51° Northeast  Level FlightAware Approximate
10:05 36.9509 -79.6964 51° Northeast  Level FlightAware Approximate
10:06 36.9840 -79.6458 51° Northeast  Level FlightAware Approximate
10:07 37.0171 -79.5952 51° Northeast  Level FlightAware Approximate
10:08 37.0501 -79.5445 51° Northeast  Level FlightAware Approximate
10:09 37.0832 -79.4938 51° Northeast  Level FlightAware Approximate
10:10 37.1162 -79.4431 51° Northeast  Level FlightAware Approximate
10:11 37.1490 -79.3921 51° Northeast  Level FlightAware Approximate
10:12 37.1816 -79.3409 51° Northeast  Level FlightAware Approximate
10:13 37.2142 -79.2897 51° Northeast  Level FlightAware Approximate
10:14 37.2468 -79.2384 51° Northeast  Level FlightAware Approximate
10:15 37.2808 -79.1885 49° Northeast  Level FlightAware Approximate
10:16 37.3149 -79.1388 49° Northeast  Level FlightAware Approximate
10:17 37.3490 -79.0890 49° Northeast  Level FlightAware Approximate
10:18 37.3831 -79.0392 49° Northeast  Level FlightAware Approximate
10:18 37.5000 -78.8833 50° Northeast 207 238 9,000  Level Potomac TRACON
10:19 37.4171 -78.9893 49° Northeast  Level FlightAware Approximate
10:19 37.5333 -78.8333 50° Northeast 207 238 9,000  Level Potomac TRACON
10:20 37.4512 -78.9394 49° Northeast  Level FlightAware Approximate
10:20 37.5667 -78.7833 50° Northeast 214 246 9,000  Level Potomac TRACON
10:21 37.4850 -78.8893 50° Northeast  Level FlightAware Approximate
10:21 37.6167 -78.7333 38° Northeast 210 242 9,000  Level Potomac TRACON
10:22 37.5187 -78.8389 50° Northeast  Level FlightAware Approximate
10:22 37.6500 -78.6833 50° Northeast 209 241 9,000  Level Potomac TRACON
10:23 37.5523 -78.7885 50° Northeast  Level FlightAware Approximate
10:23 37.6833 -78.6167 58° Northeast 208 239 9,000  Level Potomac TRACON
10:23 37.7167 -78.5667 50° Northeast 214 246 9,000  Level Potomac TRACON
10:24 37.7667 -78.5167 38° Northeast 210 242 9,000  Level Potomac TRACON
10:25 37.8000 -78.4667 50° Northeast 209 241 9,000  Level Potomac TRACON
10:26 37.8333 -78.4000 58° Northeast 214 246 9,000  Level Potomac TRACON
10:27 37.8833 -78.3500 38° Northeast 212 244 9,000  Level Potomac TRACON
10:28 37.9167 -78.3000 50° Northeast 214 246 9,000  Level Potomac TRACON
10:29 37.9500 -78.2500 50° Northeast 212 244 9,000  Level Potomac TRACON
10:30 37.9833 -78.1833 58° Northeast 211 243 9,000 -300 Level Potomac TRACON
10:31 38.0167 -78.1333 50° Northeast 224 258 8,500 -600 Descending Potomac TRACON
10:32 38.0500 -78.0500 63° Northeast 231 266 7,900 -600 Descending Potomac TRACON
10:33 38.0833 -77.9833 58° Northeast 229 264 7,400 -540 Descending Potomac TRACON
10:34 38.1000 -77.9167 72° East 233 268 6,900 -720 Descending Potomac TRACON
10:35 38.1333 -77.8500 58° Northeast 238 274 6,200 -720 Descending Potomac TRACON
10:36 38.1667 -77.7833 58° Northeast 236 272 5,700 -600 Descending Potomac TRACON
10:37 38.1833 -77.7167 72° East 230 265 5,100 -600 Descending Potomac TRACON